Time;durP1;ratioP1;P1;durP2;ratioP2;P2;SDS_P1;SDS_P2;PMS_P1;PMS_P2;Temp;Humidity;BMP_temperature;BMP_pressure;BME280_temperature;BME280_humidity;BME280_pressure;Samples;Min_cycle;Max_cycle;Signal;HPM_P1;HPM_P2
2023/07/07 00:01:21;;;;;;;;;;;12.70;99.90;;;;;;4966585;28;19930;-84
2023/07/07 00:03:47;;;;;;;;;;;12.70;99.90;;;;;;4955778;28;19929;-84
2023/07/07 00:06:12;;;;;;;;;;;12.70;99.90;;;;;;4954479;28;20251;-84
2023/07/07 00:08:38;;;;;;;;;;;12.70;99.90;;;;;;4954175;28;20288;-85
2023/07/07 00:11:04;;;;;;;;;;;12.70;99.90;;;;;;4955175;28;19996;-84
2023/07/07 00:13:30;;;;;;;;;;;12.70;99.90;;;;;;4954107;28;19936;-85
2023/07/07 00:15:58;;;;;;;;;;;12.60;99.90;;;;;;4970730;28;20001;-84
2023/07/07 00:18:26;;;;;;;;;;;12.60;99.90;;;;;;4970600;28;19926;-83
2023/07/07 00:20:56;;;;;;;;;;;12.60;99.90;;;;;;4970241;28;20413;-84
2023/07/07 00:23:21;;;;;;;;;;;12.50;99.90;;;;;;4970695;28;20400;-85
2023/07/07 00:25:58;;;;;;;;;;;12.50;99.90;;;;;;4953841;28;20340;-84
2023/07/07 00:28:23;;;;;;;;;;;12.50;99.90;;;;;;4954720;28;19926;-85
2023/07/07 00:30:49;;;;;;;;;;;12.40;99.90;;;;;;4954171;28;19943;-84
2023/07/07 00:33:14;;;;;;;;;;;12.30;99.90;;;;;;4953982;28;20319;-84
2023/07/07 00:35:45;;;;;;;;;;;12.30;99.90;;;;;;4954491;28;20016;-84
2023/07/07 00:38:11;;;;;;;;;;;12.30;99.90;;;;;;4954527;28;19949;-84
2023/07/07 00:40:36;;;;;;;;;;;12.20;99.90;;;;;;4953892;28;19926;-84
2023/07/07 00:43:04;;;;;;;;;;;12.20;99.90;;;;;;4970070;28;20349;-85
2023/07/07 00:45:30;;;;;;;;;;;12.20;99.90;;;;;;4954164;28;19940;-84
2023/07/07 00:47:58;;;;;;;;;;;12.10;99.90;;;;;;4970139;28;20293;-84
2023/07/07 00:50:26;;;;;;;;;;;12.10;99.90;;;;;;4954390;28;19933;-84
2023/07/07 00:52:52;;;;;;;;;;;12.10;99.90;;;;;;4954607;28;19926;-84
2023/07/07 00:55:20;;;;;;;;;;;12.10;99.90;;;;;;4969771;28;19937;-84
2023/07/07 00:57:46;;;;;;;;;;;12.10;99.90;;;;;;4970312;28;19984;-84
2023/07/07 01:00:12;;;;;;;;;;;12.10;99.90;;;;;;4954516;28;20029;-85
2023/07/07 01:02:37;;;;;;;;;;;12.00;99.90;;;;;;4953200;28;20381;-85
2023/07/07 01:05:04;;;;;;;;;;;12.00;99.90;;;;;;4955130;28;19969;-85
2023/07/07 01:07:34;;;;;;;;;;;12.00;99.90;;;;;;4954138;28;19926;-84
2023/07/07 01:10:00;;;;;;;;;;;12.00;99.90;;;;;;4953981;28;20425;-85
2023/07/07 01:12:25;;;;;;;;;;;11.90;99.90;;;;;;4953203;28;19975;-84
2023/07/07 01:14:51;;;;;;;;;;;11.90;99.90;;;;;;4970095;28;19968;-84
2023/07/07 01:17:28;;;;;;;;;;;11.80;99.90;;;;;;4953676;28;19930;-85
2023/07/07 01:19:58;;;;;;;;;;;11.80;99.90;;;;;;4954352;28;20385;-85
2023/07/07 01:22:34;;;;;;;;;;;11.80;99.90;;;;;;4953645;28;19930;-85
2023/07/07 01:25:17;;;;;;;;;;;11.80;99.90;;;;;;4970340;28;20036;-84
2023/07/07 01:27:57;;;;;;;;;;;11.80;99.90;;;;;;4969225;28;20441;-84
2023/07/07 01:30:42;;;;;;;;;;;11.80;99.90;;;;;;4952888;28;20012;-84
2023/07/07 01:33:09;;;;;;;;;;;11.80;99.90;;;;;;4954050;28;19941;-84
2023/07/07 01:35:34;;;;;;;;;;;11.80;99.90;;;;;;4954093;28;19949;-84
2023/07/07 01:38:01;;;;;;;;;;;11.70;99.90;;;;;;4969124;28;19941;-84
2023/07/07 01:40:32;;;;;;;;;;;11.70;99.90;;;;;;4953800;28;19922;-84
2023/07/07 01:42:59;;;;;;;;;;;11.70;99.90;;;;;;4955943;28;20024;-84
2023/07/07 01:45:30;;;;;;;;;;;11.70;99.90;;;;;;4957197;28;20026;-84
2023/07/07 01:48:02;;;;;;;;;;;11.70;99.90;;;;;;4957173;28;20050;-84
2023/07/07 01:50:31;;;;;;;;;;;11.70;99.90;;;;;;4973176;28;19941;-84
2023/07/07 01:53:02;;;;;;;;;;;11.70;99.90;;;;;;4957188;28;20373;-84
2023/07/07 01:55:30;;;;;;;;;;;11.70;99.90;;;;;;4957030;28;19936;-84
2023/07/07 01:57:57;;;;;;;;;;;11.70;99.90;;;;;;4956668;28;20020;-85
2023/07/07 02:00:23;;;;;;;;;;;11.70;99.90;;;;;;4956804;28;19936;-85
2023/07/07 02:02:50;;;;;;;;;;;11.70;99.90;;;;;;4956865;28;19930;-85
2023/07/07 02:05:16;;;;;;;;;;;11.70;99.90;;;;;;4956964;28;20278;-84
2023/07/07 02:07:42;;;;;;;;;;;11.70;99.90;;;;;;4957133;28;19941;-84
2023/07/07 02:10:08;;;;;;;;;;;11.50;99.90;;;;;;4957537;28;19926;-84
2023/07/07 02:12:34;;;;;;;;;;;11.50;99.90;;;;;;4956338;28;19936;-84
2023/07/07 02:14:59;;;;;;;;;;;11.50;99.90;;;;;;4956969;28;20382;-85
2023/07/07 02:17:28;;;;;;;;;;;11.50;99.90;;;;;;4956896;28;19930;-84
2023/07/07 02:19:54;;;;;;;;;;;11.50;99.90;;;;;;4956533;28;19929;-84
2023/07/07 02:22:20;;;;;;;;;;;11.40;99.90;;;;;;4956884;28;19937;-84
2023/07/07 02:24:46;;;;;;;;;;;11.40;99.90;;;;;;4957174;28;19937;-84
2023/07/07 02:27:15;;;;;;;;;;;11.20;99.90;;;;;;4972304;28;20317;-85
2023/07/07 02:29:40;;;;;;;;;;;11.50;99.90;;;;;;4956673;28;20005;-84
2023/07/07 02:32:06;;;;;;;;;;;11.40;99.90;;;;;;4972767;28;19936;-85
2023/07/07 02:34:32;;;;;;;;;;;11.40;99.90;;;;;;4956394;28;20024;-84
2023/07/07 02:36:58;;;;;;;;;;;11.40;99.90;;;;;;4956699;28;20017;-85
2023/07/07 02:39:24;;;;;;;;;;;11.40;99.90;;;;;;4956179;28;19933;-85
2023/07/07 02:41:50;;;;;;;;;;;11.40;99.90;;;;;;4972811;28;19934;-86
2023/07/07 02:44:16;;;;;;;;;;;11.40;99.90;;;;;;4956683;28;19933;-84
2023/07/07 02:46:42;;;;;;;;;;;11.40;99.90;;;;;;4955445;28;20281;-84
2023/07/07 02:49:07;;;;;;;;;;;11.40;99.90;;;;;;4972775;28;20489;-84
2023/07/07 02:51:33;;;;;;;;;;;11.30;99.90;;;;;;4972282;28;19925;-85
2023/07/07 02:53:58;;;;;;;;;;;11.30;99.90;;;;;;4971825;28;19929;-85
2023/07/07 02:56:24;;;;;;;;;;;11.30;99.90;;;;;;4955563;28;20385;-84
2023/07/07 02:58:50;;;;;;;;;;;11.30;99.90;;;;;;4956715;28;19952;-84
2023/07/07 03:01:17;;;;;;;;;;;11.30;99.90;;;;;;4951559;28;20317;-85
2023/07/07 03:03:43;;;;;;;;;;;11.30;99.90;;;;;;4972158;28;19933;-85
2023/07/07 03:06:11;;;;;;;;;;;11.30;99.90;;;;;;4956769;28;19921;-85
2023/07/07 03:08:37;;;;;;;;;;;11.20;99.90;;;;;;4971638;28;20282;-85
2023/07/07 03:11:05;;;;;;;;;;;11.30;99.90;;;;;;4955994;28;19940;-85
2023/07/07 03:13:30;;;;;;;;;;;11.30;99.90;;;;;;4955976;28;20024;-85
2023/07/07 03:15:56;;;;;;;;;;;11.30;99.90;;;;;;4955122;28;20060;-85
2023/07/07 03:18:21;;;;;;;;;;;11.20;99.90;;;;;;4955878;28;19926;-85
2023/07/07 03:20:47;;;;;;;;;;;11.30;99.90;;;;;;4956034;28;20016;-84
2023/07/07 03:23:13;;;;;;;;;;;11.20;99.90;;;;;;4955591;28;19934;-85
2023/07/07 03:25:38;;;;;;;;;;;11.30;99.90;;;;;;4971540;28;19936;-85
2023/07/07 03:28:04;;;;;;;;;;;11.30;99.90;;;;;;4972470;28;20409;-85
2023/07/07 03:30:30;;;;;;;;;;;11.30;99.90;;;;;;4954877;28;20297;-85
2023/07/07 03:32:55;;;;;;;;;;;11.30;99.90;;;;;;4955795;28;19972;-85
2023/07/07 03:35:21;;;;;;;;;;;11.30;99.90;;;;;;4955931;28;19930;-85
2023/07/07 03:37:47;;;;;;;;;;;11.40;99.90;;;;;;4970705;28;19922;-85
2023/07/07 03:40:13;;;;;;;;;;;11.40;99.90;;;;;;4956100;28;19997;-85
2023/07/07 03:42:38;;;;;;;;;;;11.40;99.90;;;;;;4954522;28;19930;-84
2023/07/07 03:45:04;;;;;;;;;;;11.40;99.90;;;;;;4955472;28;19926;-85
2023/07/07 03:47:30;;;;;;;;;;;11.40;99.90;;;;;;4955164;28;20021;-85
2023/07/07 03:49:55;;;;;;;;;;;11.40;99.90;;;;;;4970882;28;19944;-85
2023/07/07 03:52:21;;;;;;;;;;;11.40;99.90;;;;;;4971758;28;19930;-85
2023/07/07 03:54:46;;;;;;;;;;;11.40;99.90;;;;;;4955774;28;20386;-85
2023/07/07 03:57:12;;;;;;;;;;;11.40;99.90;;;;;;4954336;28;19929;-85
2023/07/07 03:59:38;;;;;;;;;;;11.40;99.90;;;;;;4955092;28;20458;-85
2023/07/07 04:02:03;;;;;;;;;;;11.50;99.90;;;;;;4962175;28;19933;-84
2023/07/07 04:04:29;;;;;;;;;;;11.50;99.90;;;;;;4971168;28;20037;-85
2023/07/07 04:06:55;;;;;;;;;;;11.60;99.90;;;;;;4954430;28;20440;-85
2023/07/07 04:09:21;;;;;;;;;;;11.70;99.90;;;;;;4954943;28;20033;-84
2023/07/07 04:11:46;;;;;;;;;;;11.70;99.90;;;;;;4970239;28;20016;-85
2023/07/07 04:14:12;;;;;;;;;;;11.80;99.90;;;;;;4955446;28;19965;-84
2023/07/07 04:16:37;;;;;;;;;;;11.90;99.90;;;;;;4954092;28;19928;-85
2023/07/07 04:19:03;;;;;;;;;;;12.00;99.90;;;;;;4953679;28;20029;-85
2023/07/07 04:21:30;;;;;;;;;;;12.00;99.90;;;;;;4963808;28;19926;-85
2023/07/07 04:23:56;;;;;;;;;;;12.10;99.90;;;;;;4955589;28;20002;-85
2023/07/07 04:26:22;;;;;;;;;;;12.20;99.90;;;;;;4953433;28;19997;-85
2023/07/07 04:28:51;;;;;;;;;;;12.20;99.90;;;;;;4955168;28;20374;-85
2023/07/07 04:31:17;;;;;;;;;;;12.30;99.90;;;;;;4955075;28;19929;-85
2023/07/07 04:33:43;;;;;;;;;;;12.40;99.90;;;;;;4953957;28;19980;-85
2023/07/07 04:36:09;;;;;;;;;;;12.50;99.90;;;;;;4955162;28;19934;-85
2023/07/07 04:38:35;;;;;;;;;;;12.50;99.90;;;;;;4954541;28;20052;-86
2023/07/07 04:41:05;;;;;;;;;;;12.60;99.90;;;;;;4954169;28;19964;-85
2023/07/07 04:43:32;;;;;;;;;;;12.60;99.90;;;;;;4954365;28;19936;-85
2023/07/07 04:45:58;;;;;;;;;;;12.70;99.90;;;;;;4953424;28;19930;-85
2023/07/07 04:48:23;;;;;;;;;;;12.80;99.90;;;;;;4946398;28;19932;-85
2023/07/07 04:50:49;;;;;;;;;;;12.90;99.90;;;;;;4935933;28;19930;-85
2023/07/07 04:53:15;;;;;;;;;;;13.00;99.90;;;;;;4935772;28;20030;-85
2023/07/07 04:55:42;;;;;;;;;;;13.10;99.90;;;;;;4953293;28;19937;-84
2023/07/07 04:58:08;;;;;;;;;;;13.20;99.90;;;;;;4955320;28;20350;-85
2023/07/07 05:00:33;;;;;;;;;;;13.30;99.90;;;;;;4969241;28;20728;-85
2023/07/07 05:02:59;;;;;;;;;;;13.40;99.90;;;;;;4947025;28;20088;-85
2023/07/07 05:05:25;;;;;;;;;;;13.50;99.90;;;;;;4970461;28;20301;-85
2023/07/07 05:07:56;;;;;;;;;;;13.60;99.90;;;;;;4970038;28;20025;-85
2023/07/07 05:10:21;;;;;;;;;;;13.70;99.90;;;;;;4953993;28;19929;-85
2023/07/07 05:12:47;;;;;;;;;;;13.80;99.90;;;;;;4970907;28;19926;-85
2023/07/07 05:15:13;;;;;;;;;;;14.00;99.90;;;;;;4953750;28;19988;-85
2023/07/07 05:17:38;;;;;;;;;;;14.10;99.90;;;;;;4956421;28;19930;-85
2023/07/07 05:20:04;;;;;;;;;;;14.20;99.90;;;;;;4958018;28;19925;-85
2023/07/07 05:22:30;;;;;;;;;;;14.40;99.90;;;;;;4957357;28;19938;-85
2023/07/07 05:24:55;;;;;;;;;;;14.50;99.90;;;;;;4957508;28;19932;-85
2023/07/07 05:27:21;;;;;;;;;;;14.70;99.90;;;;;;4973817;28;20064;-85
2023/07/07 05:29:49;;;;;;;;;;;14.80;99.90;;;;;;4957463;28;19977;-85
2023/07/07 05:32:14;;;;;;;;;;;14.90;99.90;;;;;;4973701;28;19930;-85
2023/07/07 05:34:40;;;;;;;;;;;15.00;99.90;;;;;;4957763;28;19929;-85
2023/07/07 05:37:06;;;;;;;;;;;15.10;99.90;;;;;;4973641;28;19926;-85
2023/07/07 05:39:31;;;;;;;;;;;15.20;99.90;;;;;;4957837;28;20390;-84
2023/07/07 05:41:57;;;;;;;;;;;15.40;99.90;;;;;;4957856;28;20027;-85
2023/07/07 05:44:22;;;;;;;;;;;15.50;99.90;;;;;;4956913;28;19933;-85
2023/07/07 05:46:48;;;;;;;;;;;15.60;99.90;;;;;;4958020;28;19929;-85
2023/07/07 05:49:13;;;;;;;;;;;15.70;99.90;;;;;;4957474;28;20016;-85
2023/07/07 05:51:39;;;;;;;;;;;15.90;99.90;;;;;;4973609;28;19934;-85
2023/07/07 05:54:05;;;;;;;;;;;16.00;99.90;;;;;;4958583;28;19933;-84
2023/07/07 05:56:30;;;;;;;;;;;16.10;99.90;;;;;;4956295;28;20302;-85
2023/07/07 05:58:56;;;;;;;;;;;16.20;99.90;;;;;;4958233;28;19925;-86
2023/07/07 06:01:22;;;;;;;;;;;16.40;99.90;;;;;;4973143;28;19926;-85
2023/07/07 06:03:48;;;;;;;;;;;16.50;99.90;;;;;;4973828;28;19926;-85
2023/07/07 06:06:13;;;;;;;;;;;16.60;99.90;;;;;;4958411;28;20370;-85
2023/07/07 06:08:39;;;;;;;;;;;16.70;99.90;;;;;;4966910;28;19934;-85
2023/07/07 06:11:06;;;;;;;;;;;16.80;99.90;;;;;;4956989;28;19936;-85
2023/07/07 06:13:32;;;;;;;;;;;16.90;99.90;;;;;;4973804;28;19932;-85
2023/07/07 06:15:58;;;;;;;;;;;17.10;99.90;;;;;;4974033;28;20079;-85
2023/07/07 06:18:23;;;;;;;;;;;17.20;99.90;;;;;;4957185;28;20023;-85
2023/07/07 06:20:51;;;;;;;;;;;17.30;99.90;;;;;;4973220;28;20280;-85
2023/07/07 06:23:17;;;;;;;;;;;17.40;99.90;;;;;;4958180;28;19930;-86
2023/07/07 06:25:42;;;;;;;;;;;17.60;99.90;;;;;;4971781;28;20364;-85
2023/07/07 06:28:08;;;;;;;;;;;17.70;99.90;;;;;;4957058;28;19925;-86
2023/07/07 06:30:33;;;;;;;;;;;17.80;99.90;;;;;;4968952;28;19930;-85
2023/07/07 06:32:59;;;;;;;;;;;17.90;99.90;;;;;;4963374;28;20389;-86
2023/07/07 06:35:25;;;;;;;;;;;18.00;99.90;;;;;;4956523;28;19930;-86
2023/07/07 06:37:51;;;;;;;;;;;18.10;99.90;;;;;;4947535;28;20393;-85
2023/07/07 06:40:16;;;;;;;;;;;18.20;99.90;;;;;;4966293;28;20412;-85
2023/07/07 06:42:42;;;;;;;;;;;18.40;99.90;;;;;;4962830;28;19930;-85
2023/07/07 06:45:08;;;;;;;;;;;18.40;99.90;;;;;;4956482;28;19961;-85
2023/07/07 06:47:34;;;;;;;;;;;18.50;99.90;;;;;;4955520;28;19933;-86
2023/07/07 06:49:59;;;;;;;;;;;18.60;99.90;;;;;;4963944;28;19949;-85
2023/07/07 06:52:25;;;;;;;;;;;18.70;99.90;;;;;;4959942;28;19930;-86
2023/07/07 06:54:52;;;;;;;;;;;18.80;99.90;;;;;;4954387;28;19980;-86
2023/07/07 06:57:17;;;;;;;;;;;18.90;99.90;;;;;;4967758;28;19930;-86
2023/07/07 06:59:43;;;;;;;;;;;19.00;99.90;;;;;;4969739;28;19977;-86
2023/07/07 07:02:10;;;;;;;;;;;19.20;99.90;;;;;;4967790;28;19930;-85
2023/07/07 07:04:36;;;;;;;;;;;19.20;99.90;;;;;;4954862;28;19929;-86
2023/07/07 07:07:01;;;;;;;;;;;19.40;99.90;;;;;;4953468;28;20424;-86
2023/07/07 07:09:27;;;;;;;;;;;19.40;99.90;;;;;;4970444;28;19933;-86
2023/07/07 07:11:53;;;;;;;;;;;19.60;99.90;;;;;;4968965;28;20017;-85
2023/07/07 07:14:19;;;;;;;;;;;19.70;99.90;;;;;;4953691;28;20024;-87
2023/07/07 07:16:45;;;;;;;;;;;19.80;99.90;;;;;;4952055;28;19941;-86
2023/07/07 07:19:10;;;;;;;;;;;19.90;99.90;;;;;;4953007;28;19930;-86
2023/07/07 07:21:36;;;;;;;;;;;19.90;99.90;;;;;;4965256;28;19930;-86
2023/07/07 07:24:02;;;;;;;;;;;20.10;99.90;;;;;;4970833;28;19929;-85
2023/07/07 07:26:27;;;;;;;;;;;20.20;99.90;;;;;;4969227;28;19926;-86
2023/07/07 07:28:53;;;;;;;;;;;20.30;99.90;;;;;;4956188;28;20048;-86
2023/07/07 07:31:19;;;;;;;;;;;20.40;99.90;;;;;;4971904;28;19930;-85
2023/07/07 07:33:51;;;;;;;;;;;20.60;99.90;;;;;;4972357;28;19995;-86
2023/07/07 07:36:17;;;;;;;;;;;20.70;99.90;;;;;;4955434;28;20032;-86
2023/07/07 07:38:42;;;;;;;;;;;20.70;99.90;;;;;;4954863;28;20359;-85
2023/07/07 07:41:08;;;;;;;;;;;20.80;99.90;;;;;;4970760;28;20362;-85
2023/07/07 07:43:34;;;;;;;;;;;21.00;99.90;;;;;;4954936;28;19934;-85
2023/07/07 07:45:59;;;;;;;;;;;21.00;99.90;;;;;;4954533;28;19937;-85
2023/07/07 07:48:25;;;;;;;;;;;21.10;99.90;;;;;;4963568;28;19930;-85
2023/07/07 07:50:50;;;;;;;;;;;21.20;99.90;;;;;;4954476;28;19926;-85
2023/07/07 07:53:16;;;;;;;;;;;21.30;99.90;;;;;;4956702;28;20008;-86
2023/07/07 07:55:42;;;;;;;;;;;21.40;99.90;;;;;;4970683;28;20399;-84
2023/07/07 07:58:07;;;;;;;;;;;21.50;99.90;;;;;;4971771;28;20381;-85
2023/07/07 08:00:33;;;;;;;;;;;21.60;99.90;;;;;;4954803;28;19955;-85
2023/07/07 08:02:58;;;;;;;;;;;21.60;99.90;;;;;;4948875;28;19930;-85
2023/07/07 08:05:24;;;;;;;;;;;21.70;99.90;;;;;;4954819;28;19930;-85
2023/07/07 08:07:50;;;;;;;;;;;21.80;99.90;;;;;;4955602;28;19930;-86
2023/07/07 08:10:15;;;;;;;;;;;21.90;99.90;;;;;;4954214;28;19937;-86
2023/07/07 08:12:41;;;;;;;;;;;22.00;99.90;;;;;;4954530;28;19930;-85
2023/07/07 08:15:09;;;;;;;;;;;22.10;99.90;;;;;;4955430;28;20000;-85
2023/07/07 08:17:35;;;;;;;;;;;22.10;99.90;;;;;;4954688;28;20005;-85
2023/07/07 08:20:00;;;;;;;;;;;22.20;99.90;;;;;;4955088;28;20356;-86
2023/07/07 08:22:26;;;;;;;;;;;22.30;99.90;;;;;;4954619;28;19952;-85
2023/07/07 08:24:54;;;;;;;;;;;22.40;99.90;;;;;;4954512;28;20004;-86
2023/07/07 08:27:20;;;;;;;;;;;22.50;99.90;;;;;;4954474;28;19926;-87
2023/07/07 08:29:46;;;;;;;;;;;22.60;99.90;;;;;;4955037;28;19930;-85
2023/07/07 08:32:13;;;;;;;;;;;22.70;99.90;;;;;;4953855;28;20396;-85
2023/07/07 08:34:39;;;;;;;;;;;22.80;99.90;;;;;;4954723;28;19984;-86
2023/07/07 08:37:05;;;;;;;;;;;22.90;99.90;;;;;;4955141;28;19929;-85
2023/07/07 08:39:30;;;;;;;;;;;23.00;99.90;;;;;;4969931;28;19930;-84
2023/07/07 08:42:01;;;;;;;;;;;23.10;99.90;;;;;;4954641;28;20336;-86
2023/07/07 08:44:28;;;;;;;;;;;23.20;99.90;;;;;;4952095;28;20401;-85
2023/07/07 08:47:04;;;;;;;;;;;23.20;99.90;;;;;;4954186;28;19925;-85
2023/07/07 08:49:30;;;;;;;;;;;23.30;99.90;;;;;;4954762;28;19926;-86
2023/07/07 08:52:01;;;;;;;;;;;23.30;99.90;;;;;;4970015;28;20277;-85
2023/07/07 08:54:38;;;;;;;;;;;23.40;99.90;;;;;;4971274;28;20373;-85
2023/07/07 08:57:07;;;;;;;;;;;23.60;99.90;;;;;;4954242;28;19926;-86
2023/07/07 08:59:43;;;;;;;;;;;23.50;99.90;;;;;;4950852;28;19930;-85
2023/07/07 09:02:25;;;;;;;;;;;23.60;99.90;;;;;;4953982;28;19926;-85
2023/07/07 09:05:00;;;;;;;;;;;23.60;99.90;;;;;;4954866;28;19930;-86
2023/07/07 09:07:32;;;;;;;;;;;23.70;99.90;;;;;;4969130;28;20360;-85
2023/07/07 09:09:58;;;;;;;;;;;23.70;99.90;;;;;;4970763;28;19929;-88
2023/07/07 09:12:27;;;;;;;;;;;23.80;99.90;;;;;;4969210;28;20310;-85
2023/07/07 09:14:54;;;;;;;;;;;23.80;99.90;;;;;;4970039;28;20337;-85
2023/07/07 09:17:24;;;;;;;;;;;24.00;99.90;;;;;;4969479;28;19930;-84
2023/07/07 09:19:51;;;;;;;;;;;24.00;99.90;;;;;;4954760;28;19948;-85
2023/07/07 09:22:24;;;;;;;;;;;24.00;99.90;;;;;;4965882;28;19977;-84
2023/07/07 09:24:56;;;;;;;;;;;24.10;99.90;;;;;;4966157;28;20271;-84
2023/07/07 09:27:27;;;;;;;;;;;24.20;99.90;;;;;;4963194;28;19934;-84
2023/07/07 09:29:58;;;;;;;;;;;24.20;99.90;;;;;;4949873;28;19929;-84
2023/07/07 09:32:23;;;;;;;;;;;24.20;99.90;;;;;;4966567;28;19944;-84
2023/07/07 09:34:49;;;;;;;;;;;24.30;99.90;;;;;;4952113;28;20317;-85
2023/07/07 09:37:22;;;;;;;;;;;24.30;99.90;;;;;;4953046;28;20001;-85
2023/07/07 09:39:55;;;;;;;;;;;24.40;99.90;;;;;;4951595;28;19926;-84
2023/07/07 09:42:32;;;;;;;;;;;24.40;99.90;;;;;;4969104;28;19930;-84
2023/07/07 09:45:02;;;;;;;;;;;24.60;99.90;;;;;;4957630;28;20312;-85
2023/07/07 09:47:38;;;;;;;;;;;24.60;99.90;;;;;;4953193;28;19926;-84
2023/07/07 09:50:03;;;;;;;;;;;24.70;99.90;;;;;;4969555;28;20382;-85
2023/07/07 09:52:36;;;;;;;;;;;24.70;99.90;;;;;;4953676;28;19929;-85
2023/07/07 09:55:03;;;;;;;;;;;24.70;99.90;;;;;;4954245;28;20020;-84
2023/07/07 09:57:29;;;;;;;;;;;24.90;99.90;;;;;;4952581;28;19929;-85
2023/07/07 09:59:56;;;;;;;;;;;24.90;99.90;;;;;;4954092;28;19929;-85
2023/07/07 10:02:23;;;;;;;;;;;25.00;99.90;;;;;;4957740;28;19988;-85
2023/07/07 10:04:52;;;;;;;;;;;25.00;99.90;;;;;;4947167;28;19936;-85
2023/07/07 10:07:18;;;;;;;;;;;25.10;99.90;;;;;;4954741;28;20024;-85
2023/07/07 10:09:44;;;;;;;;;;;25.10;99.90;;;;;;4954351;28;19926;-85
2023/07/07 10:12:13;;;;;;;;;;;25.20;99.90;;;;;;4954339;28;19936;-85
2023/07/07 10:14:39;;;;;;;;;;;25.20;99.90;;;;;;4954543;28;19930;-85
2023/07/07 10:17:08;;;;;;;;;;;25.20;99.50;;;;;;4953681;28;19933;-85
2023/07/07 10:19:39;;;;;;;;;;;25.30;99.90;;;;;;4971468;28;19999;-86
2023/07/07 10:22:05;;;;;;;;;;;25.40;99.90;;;;;;4954570;28;19926;-86
2023/07/07 10:24:30;;;;;;;;;;;25.40;99.90;;;;;;4950803;28;19941;-86
2023/07/07 10:26:57;;;;;;;;;;;25.50;99.90;;;;;;4953116;28;19930;-85
2023/07/07 10:29:26;;;;;;;;;;;25.50;99.90;;;;;;4951077;28;20386;-86
2023/07/07 10:31:52;;;;;;;;;;;25.50;99.90;;;;;;4981214;28;19929;-86
2023/07/07 10:34:23;;;;;;;;;;;25.60;99.90;;;;;;4952200;28;19940;-84
2023/07/07 10:36:52;;;;;;;;;;;25.70;99.90;;;;;;4953692;28;20065;-86
2023/07/07 10:39:17;;;;;;;;;;;25.80;99.90;;;;;;4952418;28;20338;-86
2023/07/07 10:41:43;;;;;;;;;;;25.80;99.90;;;;;;4955054;28;20393;-86
2023/07/07 10:44:09;;;;;;;;;;;25.80;98.60;;;;;;4971136;28;19981;-86
2023/07/07 10:46:34;;;;;;;;;;;25.80;98.70;;;;;;4954676;28;20427;-86
2023/07/07 10:49:00;;;;;;;;;;;25.80;98.90;;;;;;4969118;28;20390;-86
2023/07/07 10:51:32;;;;;;;;;;;25.80;99.10;;;;;;4969794;28;19955;-85
2023/07/07 10:54:01;;;;;;;;;;;25.90;99.60;;;;;;4954189;28;20440;-86
2023/07/07 10:56:30;;;;;;;;;;;25.90;99.90;;;;;;4953526;28;20429;-87
2023/07/07 10:58:55;;;;;;;;;;;26.10;99.90;;;;;;4953706;28;19936;-86
2023/07/07 11:01:39;;;;;;;;;;;26.10;99.90;;;;;;4953558;28;19925;-86
2023/07/07 11:04:14;;;;;;;;;;;26.20;98.60;;;;;;4970340;28;19929;-86
2023/07/07 11:06:46;;;;;;;;;;;26.20;98.40;;;;;;4952586;28;19937;-86
2023/07/07 11:09:20;;;;;;;;;;;26.30;97.40;;;;;;4947806;28;20076;-85
2023/07/07 11:11:51;;;;;;;;;;;26.30;97.00;;;;;;4937756;28;19933;-86
2023/07/07 11:14:17;;;;;;;;;;;26.30;97.60;;;;;;4952375;28;19989;-86
2023/07/07 11:16:47;;;;;;;;;;;26.40;98.70;;;;;;4952188;28;20342;-85
2023/07/07 11:19:31;;;;;;;;;;;26.50;98.40;;;;;;4952605;28;19937;-86
2023/07/07 11:22:05;;;;;;;;;;;26.50;97.80;;;;;;4934957;28;19976;-86
2023/07/07 11:24:32;;;;;;;;;;;26.50;96.30;;;;;;4954311;28;20425;-86
2023/07/07 11:27:16;;;;;;;;;;;26.60;96.20;;;;;;4981326;28;19973;-86
2023/07/07 11:29:48;;;;;;;;;;;26.70;95.00;;;;;;4969256;28;19932;-86
2023/07/07 11:32:34;;;;;;;;;;;26.70;96.70;;;;;;4970116;28;20306;-86
2023/07/07 11:35:13;;;;;;;;;;;26.70;96.90;;;;;;4968893;28;19934;-87
2023/07/07 11:37:38;;;;;;;;;;;26.80;96.70;;;;;;4951742;28;19941;-86
2023/07/07 11:40:07;;;;;;;;;;;26.80;96.80;;;;;;4968342;28;19925;-86
2023/07/07 11:42:32;;;;;;;;;;;26.90;94.90;;;;;;4964986;28;20364;-87
2023/07/07 11:45:08;;;;;;;;;;;26.90;96.70;;;;;;4957063;28;19934;-87
2023/07/07 11:47:41;;;;;;;;;;;26.90;96.30;;;;;;4950010;28;20378;-87
2023/07/07 11:50:07;;;;;;;;;;;27.00;94.20;;;;;;4965903;28;19930;-87
2023/07/07 11:52:42;;;;;;;;;;;27.00;93.50;;;;;;4949707;28;19926;-86
2023/07/07 11:55:14;;;;;;;;;;;26.90;93.20;;;;;;4966039;28;20074;-86
2023/07/07 11:57:43;;;;;;;;;;;26.90;92.20;;;;;;4965294;28;20029;-86
2023/07/07 12:00:17;;;;;;;;;;;26.90;95.10;;;;;;4949913;28;19930;-86
2023/07/07 12:02:46;;;;;;;;;;;26.80;94.60;;;;;;4964852;28;19930;-86
2023/07/07 12:05:13;;;;;;;;;;;26.80;95.20;;;;;;4949629;28;19922;-86
2023/07/07 12:07:44;;;;;;;;;;;26.80;95.10;;;;;;4949614;28;20334;-87
2023/07/07 12:10:14;;;;;;;;;;;26.90;96.40;;;;;;4964854;28;19950;-88
2023/07/07 12:12:42;;;;;;;;;;;26.90;93.10;;;;;;4949314;28;20139;-88
2023/07/07 12:15:14;;;;;;;;;;;27.00;92.60;;;;;;4949219;28;19981;-86
2023/07/07 12:17:46;;;;;;;;;;;27.00;93.40;;;;;;4948415;28;19930;-86
2023/07/07 12:20:14;;;;;;;;;;;27.00;91.80;;;;;;4950617;28;19937;-85
2023/07/07 12:22:40;;;;;;;;;;;27.00;94.00;;;;;;4952036;28;19938;-90
2023/07/07 12:25:12;;;;;;;;;;;26.90;92.60;;;;;;4951475;28;20031;-87
2023/07/07 12:27:40;;;;;;;;;;;26.90;92.00;;;;;;4942512;28;19940;-86
2023/07/07 12:30:06;;;;;;;;;;;26.90;93.10;;;;;;4950694;28;19927;-87
2023/07/07 12:32:32;;;;;;;;;;;27.00;93.50;;;;;;4968605;28;20064;-84
2023/07/07 12:35:02;;;;;;;;;;;26.90;91.40;;;;;;4951394;28;20033;-84
2023/07/07 12:37:28;;;;;;;;;;;26.90;92.10;;;;;;4951141;28;20290;-85
2023/07/07 12:39:58;;;;;;;;;;;26.90;90.10;;;;;;4967094;28;20386;-84
2023/07/07 12:42:26;;;;;;;;;;;26.90;91.00;;;;;;4951263;28;19930;-87
2023/07/07 12:44:51;;;;;;;;;;;26.90;91.10;;;;;;4966710;28;19936;-87
2023/07/07 12:47:26;;;;;;;;;;;26.80;89.10;;;;;;4967528;28;19930;-87
2023/07/07 12:49:54;;;;;;;;;;;26.90;91.10;;;;;;4940761;28;20013;-88
2023/07/07 12:52:19;;;;;;;;;;;26.90;91.80;;;;;;4951043;28;19996;-87
2023/07/07 12:55:02;;;;;;;;;;;26.90;90.90;;;;;;4951701;28;19926;-88
2023/07/07 12:57:28;;;;;;;;;;;26.90;90.40;;;;;;4951344;28;19933;-88
2023/07/07 13:00:13;;;;;;;;;;;26.90;90.10;;;;;;4961421;28;19926;-88
2023/07/07 13:02:55;;;;;;;;;;;26.90;90.50;;;;;;4948839;28;20499;-88
2023/07/07 13:05:21;;;;;;;;;;;27.00;91.10;;;;;;4948691;28;20381;-88
2023/07/07 13:07:58;;;;;;;;;;;26.90;90.30;;;;;;4949404;28;19930;-87
2023/07/07 13:10:31;;;;;;;;;;;27.00;88.20;;;;;;4949034;28;19934;-87
2023/07/07 13:13:04;;;;;;;;;;;26.90;89.80;;;;;;4949012;28;20398;-87
2023/07/07 13:15:30;;;;;;;;;;;26.90;88.70;;;;;;4948509;28;20338;-88
2023/07/07 13:17:57;;;;;;;;;;;26.90;91.00;;;;;;4964184;28;19930;-88
2023/07/07 13:20:23;;;;;;;;;;;26.90;90.90;;;;;;4949268;28;19930;-87
2023/07/07 13:22:50;;;;;;;;;;;26.80;87.10;;;;;;4949665;28;19937;-87
2023/07/07 13:25:19;;;;;;;;;;;26.70;88.80;;;;;;4965291;28;19934;-88
2023/07/07 13:27:44;;;;;;;;;;;26.60;87.80;;;;;;4947877;28;19973;-88
2023/07/07 13:30:17;;;;;;;;;;;26.50;88.00;;;;;;4965695;28;19992;-86
2023/07/07 13:32:43;;;;;;;;;;;26.50;90.10;;;;;;4965504;28;20381;-87
2023/07/07 13:35:10;;;;;;;;;;;26.40;85.90;;;;;;4965580;28;19980;-87
2023/07/07 13:37:36;;;;;;;;;;;26.30;90.00;;;;;;4965454;28;19984;-88
2023/07/07 13:40:03;;;;;;;;;;;26.30;89.00;;;;;;4951564;28;20354;-87
2023/07/07 13:42:30;;;;;;;;;;;26.40;89.10;;;;;;4950941;28;19930;-87
2023/07/07 13:44:56;;;;;;;;;;;26.50;88.80;;;;;;4955768;28;19933;-88
2023/07/07 13:47:23;;;;;;;;;;;26.60;86.20;;;;;;4954379;28;19926;-88
2023/07/07 13:49:51;;;;;;;;;;;26.60;88.40;;;;;;4955563;28;19947;-88
2023/07/07 13:52:19;;;;;;;;;;;26.60;89.80;;;;;;4970647;28;20016;-86
2023/07/07 13:54:46;;;;;;;;;;;26.60;85.70;;;;;;4953607;28;20397;-86
2023/07/07 13:57:12;;;;;;;;;;;26.50;86.90;;;;;;4953971;28;20416;-86
2023/07/07 13:59:38;;;;;;;;;;;26.40;85.90;;;;;;4954073;28;19957;-86
2023/07/07 14:02:12;;;;;;;;;;;26.40;83.20;;;;;;4953428;28;19938;-87
2023/07/07 14:04:38;;;;;;;;;;;26.50;86.80;;;;;;4953789;28;19926;-86
2023/07/07 14:07:03;;;;;;;;;;;26.40;85.10;;;;;;4954585;28;19993;-86
2023/07/07 14:09:29;;;;;;;;;;;26.40;84.90;;;;;;4969335;28;19926;-86
2023/07/07 14:11:56;;;;;;;;;;;26.40;85.50;;;;;;4953416;28;19930;-86
2023/07/07 14:14:22;;;;;;;;;;;26.40;87.70;;;;;;4954244;28;20409;-85
2023/07/07 14:16:52;;;;;;;;;;;26.50;86.00;;;;;;4952459;28;19922;-86
2023/07/07 14:19:18;;;;;;;;;;;26.50;87.50;;;;;;4954634;28;20021;-86